sensor_id;sensor_type;location;lat;lon;timestamp;temperature;humidity
81138;DHT22;70623;50.886;3.892;2023-12-14T00:00:33;9.30;99.90
81138;DHT22;70623;50.886;3.892;2023-12-14T00:02:58;9.20;99.90
81138;DHT22;70623;50.886;3.892;2023-12-14T00:05:24;9.30;99.90
81138;DHT22;70623;50.886;3.892;2023-12-14T00:07:50;9.20;99.90
81138;DHT22;70623;50.886;3.892;2023-12-14T00:10:15;9.20;99.90
81138;DHT22;70623;50.886;3.892;2023-12-14T00:12:43;9.20;99.90
81138;DHT22;70623;50.886;3.892;2023-12-14T00:15:09;9.20;99.90
81138;DHT22;70623;50.886;3.892;2023-12-14T00:17:37;9.20;99.90
81138;DHT22;70623;50.886;3.892;2023-12-14T00:20:03;9.10;99.90
81138;DHT22;70623;50.886;3.892;2023-12-14T00:22:29;9.10;99.90
81138;DHT22;70623;50.886;3.892;2023-12-14T00:24:57;9.10;99.90
81138;DHT22;70623;50.886;3.892;2023-12-14T00:27:23;9.20;99.90
81138;DHT22;70623;50.886;3.892;2023-12-14T00:29:48;9.20;99.90
81138;DHT22;70623;50.886;3.892;2023-12-14T00:32:17;9.20;99.90
81138;DHT22;70623;50.886;3.892;2023-12-14T00:34:42;9.20;99.90
81138;DHT22;70623;50.886;3.892;2023-12-14T00:37:08;9.20;99.90
81138;DHT22;70623;50.886;3.892;2023-12-14T00:39:33;9.20;99.90
81138;DHT22;70623;50.886;3.892;2023-12-14T00:41:59;9.20;99.90
81138;DHT22;70623;50.886;3.892;2023-12-14T00:44:25;9.20;99.90
81138;DHT22;70623;50.886;3.892;2023-12-14T00:46:50;9.20;99.90
81138;DHT22;70623;50.886;3.892;2023-12-14T00:49:16;9.30;99.90
81138;DHT22;70623;50.886;3.892;2023-12-14T00:51:43;9.30;99.90
81138;DHT22;70623;50.886;3.892;2023-12-14T00:54:09;9.30;99.90
81138;DHT22;70623;50.886;3.892;2023-12-14T00:56:34;9.30;99.90
81138;DHT22;70623;50.886;3.892;2023-12-14T00:59:00;9.30;99.90
81138;DHT22;70623;50.886;3.892;2023-12-14T01:01:26;9.30;99.90
81138;DHT22;70623;50.886;3.892;2023-12-14T01:03:51;9.30;99.90
81138;DHT22;70623;50.886;3.892;2023-12-14T01:06:17;9.10;99.90
81138;DHT22;70623;50.886;3.892;2023-12-14T01:08:43;9.10;99.90
81138;DHT22;70623;50.886;3.892;2023-12-14T01:11:08;9.10;99.90
81138;DHT22;70623;50.886;3.892;2023-12-14T01:13:34;9.30;99.90
81138;DHT22;70623;50.886;3.892;2023-12-14T01:16:00;9.30;99.90
81138;DHT22;70623;50.886;3.892;2023-12-14T01:18:28;9.30;99.90
81138;DHT22;70623;50.886;3.892;2023-12-14T01:20:53;9.20;99.90
81138;DHT22;70623;50.886;3.892;2023-12-14T01:23:19;9.00;99.90
81138;DHT22;70623;50.886;3.892;2023-12-14T01:25:45;9.00;99.90
81138;DHT22;70623;50.886;3.892;2023-12-14T01:28:10;9.00;99.90
81138;DHT22;70623;50.886;3.892;2023-12-14T01:30:36;8.90;99.90
81138;DHT22;70623;50.886;3.892;2023-12-14T01:33:02;8.90;99.90
81138;DHT22;70623;50.886;3.892;2023-12-14T01:35:30;8.80;99.90
81138;DHT22;70623;50.886;3.892;2023-12-14T01:37:56;8.60;99.90
81138;DHT22;70623;50.886;3.892;2023-12-14T01:40:21;8.50;99.90
81138;DHT22;70623;50.886;3.892;2023-12-14T01:42:47;8.40;99.90
81138;DHT22;70623;50.886;3.892;2023-12-14T01:45:12;8.40;99.90
81138;DHT22;70623;50.886;3.892;2023-12-14T01:47:44;8.30;99.90
81138;DHT22;70623;50.886;3.892;2023-12-14T01:50:13;8.20;99.90
81138;DHT22;70623;50.886;3.892;2023-12-14T01:52:38;8.20;99.90
81138;DHT22;70623;50.886;3.892;2023-12-14T01:55:04;8.10;99.90
81138;DHT22;70623;50.886;3.892;2023-12-14T01:57:30;8.00;99.90
81138;DHT22;70623;50.886;3.892;2023-12-14T01:59:56;8.00;99.90
81138;DHT22;70623;50.886;3.892;2023-12-14T02:02:22;7.90;99.90
81138;DHT22;70623;50.886;3.892;2023-12-14T02:04:47;8.00;99.90
81138;DHT22;70623;50.886;3.892;2023-12-14T02:07:13;8.00;99.90
81138;DHT22;70623;50.886;3.892;2023-12-14T02:09:39;8.10;99.90
81138;DHT22;70623;50.886;3.892;2023-12-14T02:12:05;8.10;99.90
81138;DHT22;70623;50.886;3.892;2023-12-14T02:14:31;8.10;99.90
81138;DHT22;70623;50.886;3.892;2023-12-14T02:16:56;8.20;99.90
81138;DHT22;70623;50.886;3.892;2023-12-14T02:19:22;8.00;99.90
81138;DHT22;70623;50.886;3.892;2023-12-14T02:21:48;7.90;99.90
81138;DHT22;70623;50.886;3.892;2023-12-14T02:24:13;7.80;99.90
81138;DHT22;70623;50.886;3.892;2023-12-14T02:26:39;7.70;99.90
81138;DHT22;70623;50.886;3.892;2023-12-14T02:29:04;7.60;99.90
81138;DHT22;70623;50.886;3.892;2023-12-14T02:31:30;7.70;99.90
81138;DHT22;70623;50.886;3.892;2023-12-14T02:33:56;7.70;99.90
81138;DHT22;70623;50.886;3.892;2023-12-14T02:36:21;7.70;99.90
81138;DHT22;70623;50.886;3.892;2023-12-14T02:38:47;7.70;99.90
81138;DHT22;70623;50.886;3.892;2023-12-14T02:41:13;7.60;99.90
81138;DHT22;70623;50.886;3.892;2023-12-14T02:43:38;7.60;99.90
81138;DHT22;70623;50.886;3.892;2023-12-14T02:46:05;7.60;99.90
81138;DHT22;70623;50.886;3.892;2023-12-14T02:48:31;7.40;99.90
81138;DHT22;70623;50.886;3.892;2023-12-14T02:50:57;7.30;99.90
81138;DHT22;70623;50.886;3.892;2023-12-14T02:53:25;7.20;99.90
81138;DHT22;70623;50.886;3.892;2023-12-14T02:55:51;7.30;99.90
81138;DHT22;70623;50.886;3.892;2023-12-14T02:58:17;7.30;99.90
81138;DHT22;70623;50.886;3.892;2023-12-14T03:00:43;7.20;99.90
81138;DHT22;70623;50.886;3.892;2023-12-14T03:03:09;7.30;99.90
81138;DHT22;70623;50.886;3.892;2023-12-14T03:05:34;7.30;99.90
81138;DHT22;70623;50.886;3.892;2023-12-14T03:08:00;7.30;99.90
81138;DHT22;70623;50.886;3.892;2023-12-14T03:10:26;7.30;99.90
81138;DHT22;70623;50.886;3.892;2023-12-14T03:12:51;7.20;99.90
81138;DHT22;70623;50.886;3.892;2023-12-14T03:15:18;7.10;99.90
81138;DHT22;70623;50.886;3.892;2023-12-14T03:17:44;7.10;99.90
81138;DHT22;70623;50.886;3.892;2023-12-14T03:20:10;7.10;99.90
81138;DHT22;70623;50.886;3.892;2023-12-14T03:22:36;7.10;99.90
81138;DHT22;70623;50.886;3.892;2023-12-14T03:25:05;7.10;99.90
81138;DHT22;70623;50.886;3.892;2023-12-14T03:27:33;7.10;99.90
81138;DHT22;70623;50.886;3.892;2023-12-14T03:30:01;7.10;99.90
81138;DHT22;70623;50.886;3.892;2023-12-14T03:32:26;7.10;99.90
81138;DHT22;70623;50.886;3.892;2023-12-14T03:34:52;7.10;99.90
81138;DHT22;70623;50.886;3.892;2023-12-14T03:37:20;7.10;99.90
81138;DHT22;70623;50.886;3.892;2023-12-14T03:39:45;7.10;99.90
81138;DHT22;70623;50.886;3.892;2023-12-14T03:42:11;7.10;99.90
81138;DHT22;70623;50.886;3.892;2023-12-14T03:44:37;7.10;99.90
81138;DHT22;70623;50.886;3.892;2023-12-14T03:47:03;7.10;99.90
81138;DHT22;70623;50.886;3.892;2023-12-14T03:49:29;7.00;99.90
81138;DHT22;70623;50.886;3.892;2023-12-14T03:51:54;7.00;99.90
81138;DHT22;70623;50.886;3.892;2023-12-14T03:54:20;7.00;99.90
81138;DHT22;70623;50.886;3.892;2023-12-14T03:56:48;7.00;99.90
81138;DHT22;70623;50.886;3.892;2023-12-14T03:59:13;7.00;99.90
81138;DHT22;70623;50.886;3.892;2023-12-14T04:01:41;6.90;99.90
81138;DHT22;70623;50.886;3.892;2023-12-14T04:04:07;6.90;99.90
81138;DHT22;70623;50.886;3.892;2023-12-14T04:06:32;6.80;99.90
81138;DHT22;70623;50.886;3.892;2023-12-14T04:08:58;6.80;99.90
81138;DHT22;70623;50.886;3.892;2023-12-14T04:11:24;6.80;99.90
81138;DHT22;70623;50.886;3.892;2023-12-14T04:13:52;6.80;99.90
81138;DHT22;70623;50.886;3.892;2023-12-14T04:16:22;6.80;99.90
81138;DHT22;70623;50.886;3.892;2023-12-14T04:18:50;6.70;99.90
81138;DHT22;70623;50.886;3.892;2023-12-14T04:21:16;6.70;99.90
81138;DHT22;70623;50.886;3.892;2023-12-14T04:23:42;6.80;99.90
81138;DHT22;70623;50.886;3.892;2023-12-14T04:26:07;6.80;99.90
81138;DHT22;70623;50.886;3.892;2023-12-14T04:28:35;6.70;99.90
81138;DHT22;70623;50.886;3.892;2023-12-14T04:31:00;6.70;99.90
81138;DHT22;70623;50.886;3.892;2023-12-14T04:33:26;6.80;99.90
81138;DHT22;70623;50.886;3.892;2023-12-14T04:35:51;6.80;99.90
81138;DHT22;70623;50.886;3.892;2023-12-14T04:38:18;6.90;99.90
81138;DHT22;70623;50.886;3.892;2023-12-14T04:40:44;6.90;99.90
81138;DHT22;70623;50.886;3.892;2023-12-14T04:43:09;7.00;99.90
81138;DHT22;70623;50.886;3.892;2023-12-14T04:45:35;7.00;99.90
81138;DHT22;70623;50.886;3.892;2023-12-14T04:48:00;7.00;99.90
81138;DHT22;70623;50.886;3.892;2023-12-14T04:50:26;7.00;99.90
81138;DHT22;70623;50.886;3.892;2023-12-14T04:52:52;6.90;99.90
81138;DHT22;70623;50.886;3.892;2023-12-14T04:55:20;6.90;99.90
81138;DHT22;70623;50.886;3.892;2023-12-14T04:57:45;6.80;99.90
81138;DHT22;70623;50.886;3.892;2023-12-14T05:00:12;6.80;99.90
81138;DHT22;70623;50.886;3.892;2023-12-14T05:02:38;6.80;99.90
81138;DHT22;70623;50.886;3.892;2023-12-14T05:05:04;6.90;99.90
81138;DHT22;70623;50.886;3.892;2023-12-14T05:07:30;6.90;99.90
81138;DHT22;70623;50.886;3.892;2023-12-14T05:09:56;7.00;99.90
81138;DHT22;70623;50.886;3.892;2023-12-14T05:12:22;7.00;99.90
81138;DHT22;70623;50.886;3.892;2023-12-14T05:14:47;7.10;99.90
81138;DHT22;70623;50.886;3.892;2023-12-14T05:17:13;7.10;99.90
81138;DHT22;70623;50.886;3.892;2023-12-14T05:19:39;7.10;99.90
81138;DHT22;70623;50.886;3.892;2023-12-14T05:22:04;7.20;99.90
81138;DHT22;70623;50.886;3.892;2023-12-14T05:24:30;7.30;99.90
81138;DHT22;70623;50.886;3.892;2023-12-14T05:26:56;7.30;99.90
81138;DHT22;70623;50.886;3.892;2023-12-14T05:29:21;7.40;99.90
81138;DHT22;70623;50.886;3.892;2023-12-14T05:31:48;7.40;99.90
81138;DHT22;70623;50.886;3.892;2023-12-14T05:34:14;7.50;99.90
81138;DHT22;70623;50.886;3.892;2023-12-14T05:36:41;7.50;99.90
81138;DHT22;70623;50.886;3.892;2023-12-14T05:39:07;7.60;99.90
81138;DHT22;70623;50.886;3.892;2023-12-14T05:41:42;7.60;99.90
81138;DHT22;70623;50.886;3.892;2023-12-14T05:44:07;7.60;99.90
81138;DHT22;70623;50.886;3.892;2023-12-14T05:46:33;7.70;99.90
81138;DHT22;70623;50.886;3.892;2023-12-14T05:48:59;7.70;99.90
81138;DHT22;70623;50.886;3.892;2023-12-14T05:51:28;7.60;99.90
81138;DHT22;70623;50.886;3.892;2023-12-14T05:53:54;7.50;99.90
81138;DHT22;70623;50.886;3.892;2023-12-14T05:56:20;7.30;99.90
81138;DHT22;70623;50.886;3.892;2023-12-14T05:58:46;7.20;99.90
81138;DHT22;70623;50.886;3.892;2023-12-14T06:01:11;7.30;99.90
81138;DHT22;70623;50.886;3.892;2023-12-14T06:03:37;7.10;99.90
81138;DHT22;70623;50.886;3.892;2023-12-14T06:06:05;7.30;99.90
81138;DHT22;70623;50.886;3.892;2023-12-14T06:08:31;7.40;99.90
81138;DHT22;70623;50.886;3.892;2023-12-14T06:10:59;7.60;99.90
81138;DHT22;70623;50.886;3.892;2023-12-14T06:13:27;7.50;99.90
81138;DHT22;70623;50.886;3.892;2023-12-14T06:15:52;7.50;99.90
81138;DHT22;70623;50.886;3.892;2023-12-14T06:18:18;7.20;99.90
81138;DHT22;70623;50.886;3.892;2023-12-14T06:20:46;7.40;99.90
81138;DHT22;70623;50.886;3.892;2023-12-14T06:23:11;7.40;99.90
81138;DHT22;70623;50.886;3.892;2023-12-14T06:25:37;7.50;99.90
81138;DHT22;70623;50.886;3.892;2023-12-14T06:28:03;7.60;99.90
81138;DHT22;70623;50.886;3.892;2023-12-14T06:30:28;7.40;99.90
81138;DHT22;70623;50.886;3.892;2023-12-14T06:32:54;7.50;99.90
81138;DHT22;70623;50.886;3.892;2023-12-14T06:35:22;7.50;99.90
81138;DHT22;70623;50.886;3.892;2023-12-14T06:37:48;7.30;99.90
81138;DHT22;70623;50.886;3.892;2023-12-14T06:40:14;6.90;99.90
81138;DHT22;70623;50.886;3.892;2023-12-14T06:42:39;7.10;99.90
81138;DHT22;70623;50.886;3.892;2023-12-14T06:45:06;7.10;99.90
81138;DHT22;70623;50.886;3.892;2023-12-14T06:47:32;7.00;99.90
81138;DHT22;70623;50.886;3.892;2023-12-14T06:50:00;7.30;99.90
81138;DHT22;70623;50.886;3.892;2023-12-14T06:52:25;7.50;99.90
81138;DHT22;70623;50.886;3.892;2023-12-14T06:54:51;7.50;99.90
81138;DHT22;70623;50.886;3.892;2023-12-14T06:57:17;7.50;99.90
81138;DHT22;70623;50.886;3.892;2023-12-14T06:59:42;7.50;99.90
81138;DHT22;70623;50.886;3.892;2023-12-14T07:02:08;7.40;99.90
81138;DHT22;70623;50.886;3.892;2023-12-14T07:04:34;7.50;99.90
81138;DHT22;70623;50.886;3.892;2023-12-14T07:06:59;7.60;99.90
81138;DHT22;70623;50.886;3.892;2023-12-14T07:09:25;7.40;99.90
81138;DHT22;70623;50.886;3.892;2023-12-14T07:11:53;7.30;99.90
81138;DHT22;70623;50.886;3.892;2023-12-14T07:14:19;7.30;99.90
81138;DHT22;70623;50.886;3.892;2023-12-14T07:16:44;7.40;99.90
81138;DHT22;70623;50.886;3.892;2023-12-14T07:19:10;7.40;99.90
81138;DHT22;70623;50.886;3.892;2023-12-14T07:21:39;7.50;99.90
81138;DHT22;70623;50.886;3.892;2023-12-14T07:24:04;7.50;99.90
81138;DHT22;70623;50.886;3.892;2023-12-14T07:26:33;7.40;99.90
81138;DHT22;70623;50.886;3.892;2023-12-14T07:29:01;7.30;99.90
81138;DHT22;70623;50.886;3.892;2023-12-14T07:31:27;7.50;99.90
81138;DHT22;70623;50.886;3.892;2023-12-14T07:33:55;7.70;99.90
81138;DHT22;70623;50.886;3.892;2023-12-14T07:36:20;7.70;99.90
81138;DHT22;70623;50.886;3.892;2023-12-14T07:38:48;7.70;99.90
81138;DHT22;70623;50.886;3.892;2023-12-14T07:41:13;7.80;99.90
81138;DHT22;70623;50.886;3.892;2023-12-14T07:43:39;7.70;99.90
81138;DHT22;70623;50.886;3.892;2023-12-14T07:46:05;7.80;99.90
81138;DHT22;70623;50.886;3.892;2023-12-14T07:48:31;7.90;99.90
81138;DHT22;70623;50.886;3.892;2023-12-14T07:50:59;8.00;99.90
81138;DHT22;70623;50.886;3.892;2023-12-14T07:53:26;7.70;99.90
81138;DHT22;70623;50.886;3.892;2023-12-14T07:55:52;7.60;99.90
81138;DHT22;70623;50.886;3.892;2023-12-14T07:58:18;7.60;99.90
81138;DHT22;70623;50.886;3.892;2023-12-14T08:00:46;7.70;99.90
81138;DHT22;70623;50.886;3.892;2023-12-14T08:03:11;7.70;99.90
81138;DHT22;70623;50.886;3.892;2023-12-14T08:05:37;7.70;99.90
81138;DHT22;70623;50.886;3.892;2023-12-14T08:08:03;7.60;99.90
81138;DHT22;70623;50.886;3.892;2023-12-14T08:10:29;7.50;99.90
81138;DHT22;70623;50.886;3.892;2023-12-14T08:12:54;7.30;99.90
81138;DHT22;70623;50.886;3.892;2023-12-14T08:15:20;7.30;99.90
81138;DHT22;70623;50.886;3.892;2023-12-14T08:17:46;7.20;99.90
81138;DHT22;70623;50.886;3.892;2023-12-14T08:20:11;7.10;99.90
81138;DHT22;70623;50.886;3.892;2023-12-14T08:22:39;7.10;99.90
81138;DHT22;70623;50.886;3.892;2023-12-14T08:25:11;7.20;99.90
81138;DHT22;70623;50.886;3.892;2023-12-14T08:27:37;7.40;99.90
81138;DHT22;70623;50.886;3.892;2023-12-14T08:30:03;7.60;99.90
81138;DHT22;70623;50.886;3.892;2023-12-14T08:32:32;7.70;99.90
81138;DHT22;70623;50.886;3.892;2023-12-14T08:35:01;7.80;99.90
81138;DHT22;70623;50.886;3.892;2023-12-14T08:37:26;7.90;99.90
81138;DHT22;70623;50.886;3.892;2023-12-14T08:39:52;7.90;99.90
81138;DHT22;70623;50.886;3.892;2023-12-14T08:42:18;8.10;99.90
81138;DHT22;70623;50.886;3.892;2023-12-14T08:44:43;8.10;99.90
81138;DHT22;70623;50.886;3.892;2023-12-14T08:47:12;8.20;99.90
81138;DHT22;70623;50.886;3.892;2023-12-14T08:49:43;8.20;99.90
81138;DHT22;70623;50.886;3.892;2023-12-14T08:52:11;8.30;99.90
81138;DHT22;70623;50.886;3.892;2023-12-14T08:54:37;8.30;99.90
81138;DHT22;70623;50.886;3.892;2023-12-14T08:57:03;8.40;99.90
81138;DHT22;70623;50.886;3.892;2023-12-14T08:59:29;8.30;99.90
81138;DHT22;70623;50.886;3.892;2023-12-14T09:01:55;8.20;99.90
81138;DHT22;70623;50.886;3.892;2023-12-14T09:04:21;8.10;99.90
81138;DHT22;70623;50.886;3.892;2023-12-14T09:06:46;8.10;99.90
81138;DHT22;70623;50.886;3.892;2023-12-14T09:09:12;8.10;99.90
81138;DHT22;70623;50.886;3.892;2023-12-14T09:11:38;8.20;99.90
81138;DHT22;70623;50.886;3.892;2023-12-14T09:14:03;8.10;99.90
81138;DHT22;70623;50.886;3.892;2023-12-14T09:16:29;8.10;99.90
81138;DHT22;70623;50.886;3.892;2023-12-14T09:18:57;8.10;99.90
81138;DHT22;70623;50.886;3.892;2023-12-14T09:21:24;8.10;99.90
81138;DHT22;70623;50.886;3.892;2023-12-14T09:23:50;8.10;99.90
81138;DHT22;70623;50.886;3.892;2023-12-14T09:26:18;8.20;99.90
81138;DHT22;70623;50.886;3.892;2023-12-14T09:28:44;8.30;99.90
81138;DHT22;70623;50.886;3.892;2023-12-14T09:31:10;8.40;99.90
81138;DHT22;70623;50.886;3.892;2023-12-14T09:33:36;8.50;99.90
81138;DHT22;70623;50.886;3.892;2023-12-14T09:36:02;8.70;99.90
81138;DHT22;70623;50.886;3.892;2023-12-14T09:38:28;8.60;99.90
81138;DHT22;70623;50.886;3.892;2023-12-14T09:40:54;8.80;99.90
81138;DHT22;70623;50.886;3.892;2023-12-14T09:43:19;8.90;99.90
81138;DHT22;70623;50.886;3.892;2023-12-14T09:45:47;8.80;99.90
81138;DHT22;70623;50.886;3.892;2023-12-14T09:48:15;8.80;99.90
81138;DHT22;70623;50.886;3.892;2023-12-14T09:50:41;8.90;99.90
81138;DHT22;70623;50.886;3.892;2023-12-14T09:53:10;9.10;99.90
81138;DHT22;70623;50.886;3.892;2023-12-14T09:55:36;9.30;99.90
81138;DHT22;70623;50.886;3.892;2023-12-14T09:58:02;9.20;99.90
81138;DHT22;70623;50.886;3.892;2023-12-14T10:00:36;9.30;99.90
81138;DHT22;70623;50.886;3.892;2023-12-14T10:03:24;9.40;99.90
81138;DHT22;70623;50.886;3.892;2023-12-14T10:05:52;9.40;99.90
81138;DHT22;70623;50.886;3.892;2023-12-14T10:08:18;9.50;99.90
81138;DHT22;70623;50.886;3.892;2023-12-14T10:10:46;9.50;99.90
81138;DHT22;70623;50.886;3.892;2023-12-14T10:13:12;9.20;99.90
81138;DHT22;70623;50.886;3.892;2023-12-14T10:15:45;9.10;99.90
81138;DHT22;70623;50.886;3.892;2023-12-14T10:18:12;9.10;99.90
81138;DHT22;70623;50.886;3.892;2023-12-14T10:20:38;9.00;99.90
81138;DHT22;70623;50.886;3.892;2023-12-14T10:23:05;9.00;99.90
81138;DHT22;70623;50.886;3.892;2023-12-14T10:25:31;9.00;99.90
81138;DHT22;70623;50.886;3.892;2023-12-14T10:27:57;8.90;99.90
81138;DHT22;70623;50.886;3.892;2023-12-14T10:30:25;8.70;99.90
81138;DHT22;70623;50.886;3.892;2023-12-14T10:32:51;8.50;99.90
81138;DHT22;70623;50.886;3.892;2023-12-14T10:35:16;8.40;99.90
81138;DHT22;70623;50.886;3.892;2023-12-14T10:37:43;8.30;99.90
81138;DHT22;70623;50.886;3.892;2023-12-14T10:40:13;8.30;99.90
81138;DHT22;70623;50.886;3.892;2023-12-14T10:42:43;8.10;99.90
81138;DHT22;70623;50.886;3.892;2023-12-14T10:45:11;8.10;99.90
81138;DHT22;70623;50.886;3.892;2023-12-14T10:47:39;7.90;99.90
81138;DHT22;70623;50.886;3.892;2023-12-14T10:50:10;7.90;99.90
81138;DHT22;70623;50.886;3.892;2023-12-14T10:52:40;7.90;99.90
81138;DHT22;70623;50.886;3.892;2023-12-14T10:55:15;8.00;99.90
81138;DHT22;70623;50.886;3.892;2023-12-14T10:57:43;8.10;99.90
81138;DHT22;70623;50.886;3.892;2023-12-14T11:00:11;8.30;99.90
81138;DHT22;70623;50.886;3.892;2023-12-14T11:02:42;8.40;99.90
81138;DHT22;70623;50.886;3.892;2023-12-14T11:05:12;8.50;99.90
81138;DHT22;70623;50.886;3.892;2023-12-14T11:07:59;8.60;99.90
81138;DHT22;70623;50.886;3.892;2023-12-14T11:10:53;8.80;99.90
81138;DHT22;70623;50.886;3.892;2023-12-14T11:13:21;8.90;99.90
81138;DHT22;70623;50.886;3.892;2023-12-14T11:15:54;9.00;99.90
81138;DHT22;70623;50.886;3.892;2023-12-14T11:18:20;8.80;99.90
81138;DHT22;70623;50.886;3.892;2023-12-14T11:20:59;8.60;99.90
81138;DHT22;70623;50.886;3.892;2023-12-14T11:26:02;8.70;99.90
81138;DHT22;70623;50.886;3.892;2023-12-14T11:28:36;8.70;99.90
81138;DHT22;70623;50.886;3.892;2023-12-14T11:31:03;8.60;99.90
81138;DHT22;70623;50.886;3.892;2023-12-14T11:33:37;8.50;99.90
81138;DHT22;70623;50.886;3.892;2023-12-14T11:36:05;8.60;99.90
81138;DHT22;70623;50.886;3.892;2023-12-14T11:38:32;8.60;99.90
81138;DHT22;70623;50.886;3.892;2023-12-14T11:41:00;8.60;99.90
81138;DHT22;70623;50.886;3.892;2023-12-14T11:43:26;8.70;99.90
81138;DHT22;70623;50.886;3.892;2023-12-14T11:45:54;8.70;99.90
81138;DHT22;70623;50.886;3.892;2023-12-14T11:48:21;8.80;99.90
81138;DHT22;70623;50.886;3.892;2023-12-14T11:50:47;8.90;99.90
81138;DHT22;70623;50.886;3.892;2023-12-14T11:53:13;8.90;99.90
81138;DHT22;70623;50.886;3.892;2023-12-14T11:55:42;8.70;99.90
81138;DHT22;70623;50.886;3.892;2023-12-14T11:58:09;8.60;99.90
81138;DHT22;70623;50.886;3.892;2023-12-14T12:00:36;8.60;99.90
81138;DHT22;70623;50.886;3.892;2023-12-14T12:05:41;9.00;99.90
81138;DHT22;70623;50.886;3.892;2023-12-14T12:08:08;9.10;99.90
81138;DHT22;70623;50.886;3.892;2023-12-14T12:10:34;9.10;99.90
81138;DHT22;70623;50.886;3.892;2023-12-14T12:13:06;9.00;99.90
81138;DHT22;70623;50.886;3.892;2023-12-14T12:15:33;8.90;99.90
81138;DHT22;70623;50.886;3.892;2023-12-14T12:18:03;8.90;99.90
81138;DHT22;70623;50.886;3.892;2023-12-14T12:20:29;8.90;99.90
81138;DHT22;70623;50.886;3.892;2023-12-14T12:22:54;8.80;99.90
81138;DHT22;70623;50.886;3.892;2023-12-14T12:25:20;8.70;99.90
81138;DHT22;70623;50.886;3.892;2023-12-14T12:27:46;8.80;99.90
81138;DHT22;70623;50.886;3.892;2023-12-14T12:30:12;8.90;99.90
81138;DHT22;70623;50.886;3.892;2023-12-14T12:32:38;8.90;99.90
81138;DHT22;70623;50.886;3.892;2023-12-14T12:35:05;9.00;99.90
81138;DHT22;70623;50.886;3.892;2023-12-14T12:37:30;8.90;99.90
81138;DHT22;70623;50.886;3.892;2023-12-14T12:39:56;8.90;99.90
81138;DHT22;70623;50.886;3.892;2023-12-14T12:42:22;8.80;99.90
81138;DHT22;70623;50.886;3.892;2023-12-14T12:44:48;8.90;99.90
81138;DHT22;70623;50.886;3.892;2023-12-14T12:47:13;8.90;99.90
81138;DHT22;70623;50.886;3.892;2023-12-14T12:49:39;8.90;99.90
81138;DHT22;70623;50.886;3.892;2023-12-14T12:52:05;8.90;99.90
81138;DHT22;70623;50.886;3.892;2023-12-14T12:54:40;8.90;99.90
81138;DHT22;70623;50.886;3.892;2023-12-14T12:57:06;9.00;99.90
81138;DHT22;70623;50.886;3.892;2023-12-14T12:59:31;9.00;99.90
81138;DHT22;70623;50.886;3.892;2023-12-14T13:01:57;8.90;99.90
81138;DHT22;70623;50.886;3.892;2023-12-14T13:04:23;8.90;99.90
81138;DHT22;70623;50.886;3.892;2023-12-14T13:06:52;9.00;99.90
81138;DHT22;70623;50.886;3.892;2023-12-14T13:09:18;9.00;99.90
81138;DHT22;70623;50.886;3.892;2023-12-14T13:11:45;9.20;99.90
81138;DHT22;70623;50.886;3.892;2023-12-14T13:14:12;9.30;99.90
81138;DHT22;70623;50.886;3.892;2023-12-14T13:16:38;9.40;99.90
81138;DHT22;70623;50.886;3.892;2023-12-14T13:19:04;9.30;99.90
81138;DHT22;70623;50.886;3.892;2023-12-14T13:21:32;9.30;99.90
81138;DHT22;70623;50.886;3.892;2023-12-14T13:23:59;9.20;99.90
81138;DHT22;70623;50.886;3.892;2023-12-14T13:26:25;9.00;99.90
81138;DHT22;70623;50.886;3.892;2023-12-14T13:28:53;8.90;99.90
81138;DHT22;70623;50.886;3.892;2023-12-14T13:31:19;9.00;99.90
81138;DHT22;70623;50.886;3.892;2023-12-14T13:33:48;8.90;99.90
81138;DHT22;70623;50.886;3.892;2023-12-14T13:36:16;8.70;99.90
81138;DHT22;70623;50.886;3.892;2023-12-14T13:38:44;8.50;99.90
81138;DHT22;70623;50.886;3.892;2023-12-14T13:41:10;8.40;99.90
81138;DHT22;70623;50.886;3.892;2023-12-14T13:43:39;8.40;99.90
81138;DHT22;70623;50.886;3.892;2023-12-14T13:46:26;8.30;99.90
81138;DHT22;70623;50.886;3.892;2023-12-14T13:49:00;8.40;99.90
81138;DHT22;70623;50.886;3.892;2023-12-14T13:51:29;8.40;99.90
81138;DHT22;70623;50.886;3.892;2023-12-14T13:53:55;8.50;99.90
81138;DHT22;70623;50.886;3.892;2023-12-14T13:56:21;8.50;99.90
81138;DHT22;70623;50.886;3.892;2023-12-14T13:58:49;8.50;99.90
81138;DHT22;70623;50.886;3.892;2023-12-14T14:01:15;8.60;99.90
81138;DHT22;70623;50.886;3.892;2023-12-14T14:03:42;8.60;99.90
81138;DHT22;70623;50.886;3.892;2023-12-14T14:06:08;8.60;99.90
81138;DHT22;70623;50.886;3.892;2023-12-14T14:08:37;8.50;99.90
81138;DHT22;70623;50.886;3.892;2023-12-14T14:11:02;8.50;99.90
81138;DHT22;70623;50.886;3.892;2023-12-14T14:13:28;8.40;99.90
81138;DHT22;70623;50.886;3.892;2023-12-14T14:15:57;8.40;99.90
81138;DHT22;70623;50.886;3.892;2023-12-14T14:18:23;8.40;99.90
81138;DHT22;70623;50.886;3.892;2023-12-14T14:20:49;8.40;99.90
81138;DHT22;70623;50.886;3.892;2023-12-14T14:23:17;8.40;99.90
81138;DHT22;70623;50.886;3.892;2023-12-14T14:25:43;8.40;99.90
81138;DHT22;70623;50.886;3.892;2023-12-14T14:28:09;8.40;99.90
81138;DHT22;70623;50.886;3.892;2023-12-14T14:30:35;8.50;99.90
81138;DHT22;70623;50.886;3.892;2023-12-14T14:33:01;8.40;99.90
81138;DHT22;70623;50.886;3.892;2023-12-14T14:35:26;8.40;99.90
81138;DHT22;70623;50.886;3.892;2023-12-14T14:37:54;8.30;99.90
81138;DHT22;70623;50.886;3.892;2023-12-14T14:40:20;8.30;99.90
81138;DHT22;70623;50.886;3.892;2023-12-14T14:42:47;8.30;99.90
81138;DHT22;70623;50.886;3.892;2023-12-14T14:45:13;8.40;99.90
81138;DHT22;70623;50.886;3.892;2023-12-14T14:47:40;8.40;99.90
81138;DHT22;70623;50.886;3.892;2023-12-14T14:50:10;8.50;99.90
81138;DHT22;70623;50.886;3.892;2023-12-14T14:52:36;8.50;99.90
81138;DHT22;70623;50.886;3.892;2023-12-14T14:55:04;8.40;99.90
81138;DHT22;70623;50.886;3.892;2023-12-14T14:57:30;8.40;99.90
81138;DHT22;70623;50.886;3.892;2023-12-14T14:59:57;8.30;99.90
81138;DHT22;70623;50.886;3.892;2023-12-14T15:02:23;8.30;99.90
81138;DHT22;70623;50.886;3.892;2023-12-14T15:04:51;8.30;99.90
81138;DHT22;70623;50.886;3.892;2023-12-14T15:07:20;8.30;99.90
81138;DHT22;70623;50.886;3.892;2023-12-14T15:09:46;8.40;99.90
81138;DHT22;70623;50.886;3.892;2023-12-14T15:12:12;8.50;99.90
81138;DHT22;70623;50.886;3.892;2023-12-14T15:14:37;8.50;99.90
81138;DHT22;70623;50.886;3.892;2023-12-14T15:17:03;8.60;99.90
81138;DHT22;70623;50.886;3.892;2023-12-14T15:19:29;8.60;99.90
81138;DHT22;70623;50.886;3.892;2023-12-14T15:21:54;8.60;99.90
81138;DHT22;70623;50.886;3.892;2023-12-14T15:24:20;8.50;99.90
81138;DHT22;70623;50.886;3.892;2023-12-14T15:26:46;8.60;99.90
81138;DHT22;70623;50.886;3.892;2023-12-14T15:29:12;8.50;99.90
81138;DHT22;70623;50.886;3.892;2023-12-14T15:31:38;8.50;99.90
81138;DHT22;70623;50.886;3.892;2023-12-14T15:34:03;8.60;99.90
81138;DHT22;70623;50.886;3.892;2023-12-14T15:36:32;8.60;99.90
81138;DHT22;70623;50.886;3.892;2023-12-14T15:39:01;8.60;99.90
81138;DHT22;70623;50.886;3.892;2023-12-14T15:41:26;8.60;99.90
81138;DHT22;70623;50.886;3.892;2023-12-14T15:43:54;8.50;99.90
81138;DHT22;70623;50.886;3.892;2023-12-14T15:46:19;8.40;99.90